Time;durP1;ratioP1;P1;durP2;ratioP2;P2;SDS_P1;SDS_P2;PMS_P1;PMS_P2;Temp;Humidity;BMP_temperature;BMP_pressure;BME280_temperature;BME280_humidity;BME280_pressure;Samples;Min_cycle;Max_cycle;Signal;HPM_P1;HPM_P2
2021/06/21 00:01:54;;;;;;;5.63;2.85;;;14.60;99.90;;;;;;5091329;28;20538;-85
2021/06/21 00:04:21;;;;;;;9.40;3.22;;;14.60;99.90;;;;;;5103305;28;20081;-87
2021/06/21 00:06:48;;;;;;;9.65;3.38;;;14.60;99.90;;;;;;5091276;28;20123;-85
2021/06/21 00:09:15;;;;;;;8.02;3.33;;;14.60;99.90;;;;;;5100667;28;20159;-86
2021/06/21 00:11:42;;;;;;;10.23;3.42;;;14.60;99.90;;;;;;5108292;28;20043;-87
2021/06/21 00:14:09;;;;;;;7.30;3.55;;;14.60;99.90;;;;;;5091953;28;20073;-86
2021/06/21 00:16:35;;;;;;;7.78;3.20;;;14.60;99.90;;;;;;5091612;28;20170;-86
2021/06/21 00:19:04;;;;;;;7.03;3.60;;;14.60;99.90;;;;;;5091506;28;20047;-85
2021/06/21 00:21:31;;;;;;;8.75;3.40;;;14.60;99.90;;;;;;5091359;28;20032;-85
2021/06/21 00:23:58;;;;;;;9.35;3.75;;;14.60;99.90;;;;;;5090753;28;20045;-85
2021/06/21 00:26:25;;;;;;;6.20;2.92;;;14.60;99.90;;;;;;5107873;28;20041;-85
2021/06/21 00:28:52;;;;;;;9.15;3.10;;;14.60;99.90;;;;;;5107179;28;20410;-86
2021/06/21 00:31:19;;;;;;;8.38;2.92;;;14.60;99.90;;;;;;5091460;28;20082;-85
2021/06/21 00:33:46;;;;;;;10.57;3.35;;;14.60;99.90;;;;;;5107173;28;20388;-85
2021/06/21 00:36:12;;;;;;;9.05;3.47;;;14.60;99.90;;;;;;5107844;28;20040;-84
2021/06/21 00:38:39;;;;;;;8.73;3.20;;;14.60;99.90;;;;;;5108052;28;20037;-85
2021/06/21 00:41:06;;;;;;;5.80;3.13;;;14.60;99.90;;;;;;5124482;28;20043;-83
2021/06/21 00:43:33;;;;;;;8.93;3.53;;;14.60;99.90;;;;;;5107529;28;20064;-85
2021/06/21 00:46:01;;;;;;;7.03;2.72;;;14.60;99.90;;;;;;5107096;28;20085;-85
2021/06/21 00:48:28;;;;;;;6.65;2.85;;;14.60;99.90;;;;;;5107673;28;20068;-85
2021/06/21 00:50:54;;;;;;;6.88;2.70;;;14.60;99.90;;;;;;5074345;28;20079;-86
2021/06/21 00:53:22;;;;;;;6.72;2.67;;;14.60;99.90;;;;;;5107503;28;20070;-86
2021/06/21 00:55:49;;;;;;;8.48;2.92;;;14.60;99.90;;;;;;5090330;28;20036;-86
2021/06/21 00:58:16;;;;;;;7.60;2.78;;;14.60;99.90;;;;;;5090980;28;20085;-86
2021/06/21 01:00:42;;;;;;;5.40;2.35;;;14.60;99.90;;;;;;5107276;28;20036;-84
2021/06/21 01:03:09;;;;;;;8.07;2.85;;;14.60;99.90;;;;;;5106907;28;20071;-85
2021/06/21 01:05:36;;;;;;;7.22;2.63;;;14.50;99.90;;;;;;5107271;28;20037;-84
2021/06/21 01:08:08;;;;;;;6.40;2.60;;;14.50;99.90;;;;;;5123741;28;20032;-84
2021/06/21 01:10:37;;;;;;;5.50;2.50;;;14.50;99.90;;;;;;5107247;28;20032;-85
2021/06/21 01:13:47;;;;;;;5.93;2.58;;;14.50;99.90;;;;;;5089440;28;20108;-84
2021/06/21 01:16:20;;;;;;;6.35;2.40;;;14.50;99.90;;;;;;5106370;28;20101;-84
2021/06/21 01:19:08;;;;;;;5.90;2.45;;;14.50;99.90;;;;;;5106640;28;20419;-86
2021/06/21 01:21:58;;;;;;;11.85;2.58;;;14.50;99.90;;;;;;5107162;28;20078;-85
2021/06/21 01:24:42;;;;;;;7.57;2.90;;;14.50;99.90;;;;;;5107137;28;20043;-86
2021/06/21 01:27:18;;;;;;;8.70;2.92;;;14.50;99.90;;;;;;5107793;28;20041;-84
2021/06/21 01:30:02;;;;;;;7.50;2.60;;;14.50;99.90;;;;;;5106815;28;20048;-86
2021/06/21 01:32:55;;;;;;;5.53;2.53;;;14.50;99.90;;;;;;5107168;28;20032;-86
2021/06/21 01:35:31;;;;;;;11.15;2.58;;;14.50;99.90;;;;;;5106981;28;20036;-86
2021/06/21 01:37:58;;;;;;;;;;;14.50;99.90;;;;;;5107099;28;20048;-85
2021/06/21 01:40:27;;;;;;;7.13;2.30;;;14.50;99.90;;;;;;5108199;28;19923;-86
2021/06/21 01:42:57;;;;;;;5.65;2.13;;;14.40;99.90;;;;;;5106255;28;20040;-86
2021/06/21 01:45:25;;;;;;;5.30;2.00;;;14.50;99.90;;;;;;5107883;28;20408;-85
2021/06/21 01:47:54;;;;;;;6.25;2.33;;;14.50;99.90;;;;;;5107542;28;20040;-84
2021/06/21 01:50:25;;;;;;;7.22;2.08;;;14.50;99.90;;;;;;5106653;28;20033;-86
2021/06/21 01:53:10;;;;;;;4.72;2.20;;;14.50;99.90;;;;;;5089460;28;20536;-86
2021/06/21 01:55:44;;;;;;;3.30;1.70;;;14.50;99.90;;;;;;5108672;28;20044;-86
2021/06/21 01:58:12;;;;;;;5.47;2.08;;;14.40;99.90;;;;;;5107373;28;20066;-86
2021/06/21 02:00:41;;;;;;;4.70;2.10;;;14.40;99.90;;;;;;5106696;28;20163;-86
2021/06/21 02:03:09;;;;;;;4.00;1.83;;;14.40;99.90;;;;;;5106521;28;20123;-87
2021/06/21 02:05:36;;;;;;;6.07;2.00;;;14.40;99.90;;;;;;5106843;28;20044;-86
2021/06/21 02:08:05;;;;;;;7.13;2.25;;;14.50;99.90;;;;;;5106433;28;20032;-86
2021/06/21 02:10:34;;;;;;;4.97;2.10;;;14.50;99.90;;;;;;5106530;28;20072;-85
2021/06/21 02:13:02;;;;;;;6.63;2.47;;;14.50;99.90;;;;;;5106018;28;20404;-85
2021/06/21 02:15:30;;;;;;;5.63;2.05;;;14.50;99.90;;;;;;5106412;28;20072;-84
2021/06/21 02:17:58;;;;;;;6.75;2.45;;;14.50;99.90;;;;;;5123389;28;20048;-87
2021/06/21 02:20:25;;;;;;;7.43;2.53;;;14.40;99.90;;;;;;5106701;28;20108;-86
2021/06/21 02:22:52;;;;;;;5.35;2.10;;;14.40;99.90;;;;;;5106602;28;20119;-85
2021/06/21 02:25:26;;;;;;;8.90;2.30;;;14.40;99.90;;;;;;5093055;28;20052;-87
2021/06/21 02:27:54;;;;;;;8.25;2.50;;;14.40;99.90;;;;;;5093829;28;20037;-84
2021/06/21 02:30:21;;;;;;;6.40;2.55;;;14.40;99.90;;;;;;5079570;28;20053;-85
2021/06/21 02:32:49;;;;;;;9.77;2.80;;;14.50;99.90;;;;;;5101460;28;20483;-86
2021/06/21 02:35:16;;;;;;;6.25;2.90;;;14.50;99.90;;;;;;5099149;28;20064;-86
2021/06/21 02:37:43;;;;;;;8.23;2.90;;;14.50;99.90;;;;;;5093459;28;20544;-85
2021/06/21 02:40:14;;;;;;;4.63;2.30;;;14.40;99.90;;;;;;5093055;28;20115;-86
2021/06/21 02:42:42;;;;;;;7.75;2.90;;;14.40;99.90;;;;;;5110030;28;20388;-86
2021/06/21 02:45:10;;;;;;;6.78;2.53;;;14.40;99.90;;;;;;5109666;28;20457;-86
2021/06/21 02:47:37;;;;;;;11.05;3.00;;;14.40;99.90;;;;;;5110123;28;20046;-86
2021/06/21 02:50:05;;;;;;;10.80;3.03;;;14.40;99.90;;;;;;5109682;28;20037;-85
2021/06/21 02:52:59;;;;;;;8.52;2.72;;;14.30;99.90;;;;;;5093297;28;20505;-86
2021/06/21 02:55:55;;;;;;;6.72;2.72;;;14.30;99.90;;;;;;5110039;28;20039;-86
2021/06/21 02:58:35;;;;;;;6.60;2.63;;;14.20;99.90;;;;;;5133713;28;20064;-86
2021/06/21 03:01:06;;;;;;;4.50;2.50;;;14.20;99.90;;;;;;5109321;28;20452;-86
2021/06/21 03:03:51;;;;;;;8.45;3.13;;;14.20;99.90;;;;;;5093594;28;20064;-86
2021/06/21 03:06:19;;;;;;;6.10;2.83;;;14.20;99.90;;;;;;5109154;28;20465;-85
2021/06/21 03:08:48;;;;;;;9.60;2.95;;;14.20;99.90;;;;;;5076972;28;20052;-86
2021/06/21 03:11:16;;;;;;;9.13;3.47;;;14.20;99.90;;;;;;5109382;28;20124;-87
2021/06/21 03:13:55;;;;;;;7.10;3.35;;;14.10;99.90;;;;;;5093244;28;20040;-86
2021/06/21 03:16:23;;;;;;;9.65;3.13;;;14.20;99.90;;;;;;5092334;28;20056;-85
2021/06/21 03:18:52;;;;;;;9.27;3.17;;;14.20;99.90;;;;;;5109189;28;20060;-85
2021/06/21 03:21:20;;;;;;;8.32;3.47;;;14.20;99.90;;;;;;5109148;28;20040;-86
2021/06/21 03:23:52;;;;;;;10.52;3.60;;;14.20;99.90;;;;;;5109424;28;20039;-87
2021/06/21 03:26:28;;;;;;;9.48;3.50;;;14.20;99.90;;;;;;5092363;28;20040;-86
2021/06/21 03:28:56;;;;;;;8.43;3.95;;;14.20;99.90;;;;;;5109440;28;20049;-87
2021/06/21 03:31:23;;;;;;;8.07;3.95;;;14.20;99.90;;;;;;5125791;28;20032;-86
2021/06/21 03:33:51;;;;;;;11.95;4.95;;;14.20;99.90;;;;;;5091925;28;20055;-86
2021/06/21 03:36:18;;;;;;;10.35;4.55;;;14.20;99.90;;;;;;5108216;28;20051;-86
2021/06/21 03:38:46;;;;;;;8.18;4.47;;;14.20;99.90;;;;;;5092205;28;20090;-87
2021/06/21 03:41:13;;;;;;;11.35;4.20;;;14.10;99.90;;;;;;5108229;28;20112;-87
2021/06/21 03:43:40;;;;;;;8.63;3.60;;;14.20;99.90;;;;;;5092043;28;20044;-87
2021/06/21 03:46:09;;;;;;;9.27;3.60;;;14.20;99.90;;;;;;5091621;28;20040;-88
2021/06/21 03:48:37;;;;;;;12.40;4.55;;;14.20;99.90;;;;;;5092466;28;20043;-88
2021/06/21 03:51:04;;;;;;;12.70;4.35;;;14.20;99.90;;;;;;5108765;28;20429;-89
2021/06/21 03:53:32;;;;;;;11.15;4.13;;;14.20;99.90;;;;;;5109311;28;20434;-88
2021/06/21 03:55:59;;;;;;;10.93;4.80;;;14.10;99.90;;;;;;5092298;28;20144;-86
2021/06/21 03:58:26;;;;;;;11.63;4.28;;;14.10;99.90;;;;;;5108842;28;20036;-87
2021/06/21 04:00:55;;;;;;;11.13;4.60;;;14.10;99.90;;;;;;5108826;28;20067;-87
2021/06/21 04:03:23;;;;;;;10.45;3.83;;;14.10;99.90;;;;;;5108720;28;20040;-86
2021/06/21 04:05:50;;;;;;;9.07;3.65;;;14.10;99.90;;;;;;5108702;28;20388;-87
2021/06/21 04:08:18;;;;;;;7.65;3.70;;;14.10;99.90;;;;;;5091649;28;20036;-86
2021/06/21 04:10:46;;;;;;;10.38;3.70;;;14.10;99.90;;;;;;5092058;28;20074;-86
2021/06/21 04:13:15;;;;;;;7.80;3.45;;;14.10;99.90;;;;;;5108357;28;20423;-87
2021/06/21 04:15:43;;;;;;;7.60;3.92;;;14.10;99.90;;;;;;5108728;28;20476;-87
2021/06/21 04:18:12;;;;;;;9.20;3.53;;;14.10;99.90;;;;;;5091324;28;20040;-85
2021/06/21 04:20:42;;;;;;;8.43;3.22;;;14.10;99.90;;;;;;5108376;28;20040;-85
2021/06/21 04:23:11;;;;;;;13.35;4.13;;;14.10;99.90;;;;;;5091521;28;20066;-84
2021/06/21 04:25:38;;;;;;;8.85;3.42;;;14.10;99.90;;;;;;5109786;28;20041;-86
2021/06/21 04:28:07;;;;;;;10.88;3.85;;;14.00;99.90;;;;;;5108327;28;20049;-85
2021/06/21 04:30:36;;;;;;;10.10;3.75;;;14.10;99.90;;;;;;5091625;28;20060;-87
2021/06/21 04:33:03;;;;;;;10.50;3.80;;;14.10;99.90;;;;;;5108510;28;20039;-87
2021/06/21 04:35:31;;;;;;;8.50;3.70;;;14.10;99.90;;;;;;5091498;28;20514;-88
2021/06/21 04:37:58;;;;;;;10.15;3.53;;;14.10;99.90;;;;;;5091800;28;20091;-87
2021/06/21 04:40:32;;;;;;;13.95;4.13;;;14.10;99.90;;;;;;5107999;28;20056;-87
2021/06/21 04:42:59;;;;;;;8.02;4.20;;;14.00;99.90;;;;;;5108308;28;20032;-89
2021/06/21 04:45:26;;;;;;;11.38;3.95;;;14.00;99.90;;;;;;5107743;28;20515;-88
2021/06/21 04:47:54;;;;;;;10.48;3.95;;;14.00;99.90;;;;;;5074261;28;20481;-87
2021/06/21 04:50:21;;;;;;;9.73;3.40;;;14.00;99.90;;;;;;5091181;28;20040;-84
2021/06/21 04:52:50;;;;;;;7.75;3.50;;;14.00;99.90;;;;;;5108196;28;20108;-86
2021/06/21 04:55:19;;;;;;;10.77;4.22;;;14.00;99.90;;;;;;5108097;28;20389;-87
2021/06/21 04:57:46;;;;;;;10.10;3.67;;;14.00;99.90;;;;;;5092003;28;20096;-88
2021/06/21 05:00:16;;;;;;;13.25;4.18;;;14.00;99.90;;;;;;5109205;28;20056;-89
2021/06/21 05:02:43;;;;;;;7.68;3.92;;;14.00;99.90;;;;;;5109263;28;20501;-88
2021/06/21 05:05:10;;;;;;;8.00;3.63;;;14.00;99.90;;;;;;5091161;28;20033;-87
2021/06/21 05:07:39;;;;;;;13.18;4.40;;;14.00;99.90;;;;;;5091420;28;20044;-87
2021/06/21 05:10:08;;;;;;;10.13;3.55;;;14.00;99.90;;;;;;5108245;28;20032;-89
2021/06/21 05:12:35;;;;;;;10.15;4.05;;;13.90;99.90;;;;;;5091578;28;20491;-91
2021/06/21 05:15:04;;;;;;;9.30;4.13;;;13.90;99.90;;;;;;5107998;28;20032;-90
2021/06/21 05:17:31;;;;;;;12.88;4.43;;;13.90;99.90;;;;;;5091425;28;20036;-90
2021/06/21 05:19:58;;;;;;;8.80;3.95;;;13.90;99.90;;;;;;5108165;28;20469;-87
2021/06/21 05:22:25;;;;;;;11.57;4.10;;;13.90;99.90;;;;;;5091104;28;20459;-89
2021/06/21 05:24:54;;;;;;;9.02;4.18;;;13.90;99.90;;;;;;5102546;28;20063;-91
2021/06/21 05:27:21;;;;;;;13.82;4.38;;;13.90;99.90;;;;;;5098076;28;20515;-92
2021/06/21 05:29:49;;;;;;;9.10;4.07;;;13.90;99.90;;;;;;5104620;28;20059;-90
2021/06/21 05:32:17;;;;;;;10.98;3.97;;;13.90;99.90;;;;;;5087893;28;20131;-91
2021/06/21 05:34:43;;;;;;;10.15;4.00;;;13.90;99.90;;;;;;5108050;28;20045;-90
2021/06/21 05:37:10;;;;;;;10.68;4.28;;;13.80;99.90;;;;;;5080953;28;20040;-88
2021/06/21 05:39:37;;;;;;;9.65;4.45;;;13.90;99.90;;;;;;5075658;28;20033;-90
2021/06/21 05:42:05;;;;;;;11.15;4.43;;;13.90;99.90;;;;;;5071800;28;20051;-88
2021/06/21 05:44:32;;;;;;;12.75;4.75;;;13.90;99.90;;;;;;5088040;28;20035;-89
2021/06/21 05:46:58;;;;;;;11.73;3.85;;;13.90;99.90;;;;;;5090581;28;20115;-88
2021/06/21 05:49:29;;;;;;;7.80;4.00;;;13.90;99.90;;;;;;5075461;28;20037;-87
2021/06/21 05:51:56;;;;;;;10.20;4.05;;;13.90;99.90;;;;;;5065172;28;20040;-88
2021/06/21 05:54:23;;;;;;;11.45;3.97;;;13.90;99.90;;;;;;5074685;28;20378;-86
2021/06/21 05:56:50;;;;;;;12.05;4.05;;;13.90;99.90;;;;;;5107766;28;20101;-88
2021/06/21 05:59:17;;;;;;;7.45;3.13;;;13.80;99.90;;;;;;5109987;28;20098;-87
2021/06/21 06:01:44;;;;;;;9.48;3.17;;;13.80;99.90;;;;;;5111534;28;20040;-86
2021/06/21 06:04:11;;;;;;;11.60;3.60;;;13.80;99.90;;;;;;5128128;28;20047;-87
2021/06/21 06:06:37;;;;;;;7.78;3.10;;;13.80;99.90;;;;;;5111674;28;20378;-87
2021/06/21 06:09:04;;;;;;;7.57;3.00;;;13.80;99.90;;;;;;5111517;28;20069;-88
2021/06/21 06:11:31;;;;;;;7.80;2.90;;;13.80;99.90;;;;;;5094397;28;20052;-87
2021/06/21 06:13:58;;;;;;;8.25;3.30;;;13.80;99.90;;;;;;5095027;28;20037;-89
2021/06/21 06:16:25;;;;;;;6.45;3.17;;;13.70;99.90;;;;;;5093664;28;20040;-88
2021/06/21 06:18:52;;;;;;;8.30;3.60;;;13.70;99.90;;;;;;5094883;28;20400;-86
2021/06/21 06:21:18;;;;;;;8.90;3.55;;;13.70;99.90;;;;;;5111120;28;20036;-89
2021/06/21 06:23:45;;;;;;;9.93;3.45;;;13.70;99.90;;;;;;5090357;28;20052;-88
2021/06/21 06:26:12;;;;;;;7.57;3.28;;;13.70;99.90;;;;;;5100816;28;20124;-86
2021/06/21 06:28:39;;;;;;;9.20;3.45;;;13.70;99.90;;;;;;5093851;28;20048;-86
2021/06/21 06:31:07;;;;;;;11.07;3.75;;;13.60;99.90;;;;;;5110757;28;20036;-86
2021/06/21 06:33:34;;;;;;;8.50;3.50;;;13.60;99.90;;;;;;5096957;28;20041;-82
2021/06/21 06:36:01;;;;;;;10.38;4.00;;;13.60;99.90;;;;;;5110129;28;20477;-87
2021/06/21 06:38:28;;;;;;;9.63;3.70;;;13.60;99.90;;;;;;5098767;28;20037;-87
2021/06/21 06:40:55;;;;;;;10.30;2.97;;;13.60;99.90;;;;;;5073950;28;20029;-88
2021/06/21 06:43:23;;;;;;;11.23;3.60;;;13.50;99.90;;;;;;5074075;28;20072;-90
2021/06/21 06:45:51;;;;;;;8.70;3.60;;;13.50;99.90;;;;;;5074514;28;20106;-91
2021/06/21 06:48:18;;;;;;;8.27;3.38;;;13.50;99.90;;;;;;5074428;28;20041;-89
2021/06/21 06:50:45;;;;;;;9.93;3.45;;;13.50;99.90;;;;;;5073956;28;20052;-88
2021/06/21 06:53:14;;;;;;;10.10;3.30;;;13.60;99.90;;;;;;5073878;28;20048;-86
2021/06/21 06:58:28;;;;;;;7.80;3.33;;;13.50;99.90;;;;;;5069898;28;20485;-90
2021/06/21 07:00:55;;;;;;;12.93;3.22;;;13.50;99.90;;;;;;5070999;28;20060;-90
2021/06/21 07:03:22;;;;;;;11.43;3.50;;;13.50;99.90;;;;;;5074435;28;20053;-91
2021/06/21 07:05:49;;;;;;;11.10;3.67;;;13.40;99.90;;;;;;5073419;28;20396;-89
2021/06/21 07:08:16;;;;;;;10.80;3.28;;;13.50;99.90;;;;;;5073842;28;20041;-87
2021/06/21 07:10:43;;;;;;;7.68;3.13;;;13.40;99.90;;;;;;5058467;28;20041;-92
2021/06/21 07:13:10;;;;;;;6.75;3.20;;;13.50;99.90;;;;;;5075478;28;20040;-92
2021/06/21 07:15:37;;;;;;;11.35;3.50;;;13.40;99.90;;;;;;5073426;28;20716;-89
2021/06/21 07:18:05;;;;;;;7.88;3.40;;;13.50;99.90;;;;;;5090197;28;20045;-90
2021/06/21 07:20:50;;;;;;;9.20;3.35;;;13.40;99.90;;;;;;5088561;28;20059;-92
2021/06/21 07:23:19;;;;;;;12.73;3.30;;;13.50;99.90;;;;;;5082637;28;20048;-89
2021/06/21 07:25:46;;;;;;;9.43;3.35;;;13.50;99.90;;;;;;5110632;28;20396;-93
2021/06/21 07:28:15;;;;;;;8.38;3.42;;;13.50;99.90;;;;;;5089296;28;20037;-93
2021/06/21 07:30:43;;;;;;;10.82;3.60;;;13.50;99.90;;;;;;5094473;28;20048;-89
2021/06/21 07:33:12;;;;;;;10.25;3.47;;;13.50;99.90;;;;;;5094996;28;20040;-87
2021/06/21 07:35:40;;;;;;;11.30;3.10;;;13.50;99.90;;;;;;5075941;28;20491;-91
2021/06/21 07:38:10;;;;;;;8.65;3.35;;;13.50;99.90;;;;;;5073322;28;20045;-90
2021/06/21 07:40:38;;;;;;;12.68;3.50;;;13.50;99.90;;;;;;5094210;28;20489;-89
2021/06/21 07:43:05;;;;;;;10.35;3.60;;;13.50;99.90;;;;;;5111254;28;20056;-90
2021/06/21 07:45:32;;;;;;;11.68;3.38;;;13.50;99.90;;;;;;5077445;28;20060;-90
2021/06/21 07:48:00;;;;;;;10.65;3.25;;;13.50;99.90;;;;;;5077708;28;20067;-87
2021/06/21 07:50:30;;;;;;;9.07;3.60;;;13.50;99.90;;;;;;5095438;28;20044;-90
2021/06/21 07:52:58;;;;;;;12.60;3.25;;;13.50;99.90;;;;;;5080090;28;20047;-89
2021/06/21 07:55:27;;;;;;;9.57;3.50;;;13.50;99.90;;;;;;5095003;28;20100;-92
2021/06/21 07:57:55;;;;;;;9.15;2.90;;;13.50;99.90;;;;;;5077491;28;20052;-89
2021/06/21 08:00:24;;;;;;;13.43;4.15;;;13.50;99.90;;;;;;5094745;28;20055;-89
2021/06/21 08:02:52;;;;;;;27.65;4.55;;;13.50;99.90;;;;;;5111803;28;20137;-88
2021/06/21 08:05:23;;;;;;;61.33;6.88;;;13.50;99.90;;;;;;5077997;28;20098;-74
2021/06/21 08:08:01;;;;;;;108.65;6.95;;;13.60;99.90;;;;;;5107589;28;20043;-89
2021/06/21 08:10:27;;;;;;;18.23;4.32;;;13.60;99.90;;;;;;5109172;28;20044;-86
2021/06/21 08:12:56;;;;;;;22.27;4.72;;;13.50;99.90;;;;;;5108428;28;20123;-89
2021/06/21 08:15:23;;;;;;;18.33;4.28;;;13.50;99.90;;;;;;5109337;28;20059;-88
2021/06/21 08:17:49;;;;;;;20.60;4.53;;;13.50;99.90;;;;;;5090928;28;20048;-79
2021/06/21 08:20:17;;;;;;;18.35;3.85;;;13.60;99.90;;;;;;5108281;28;20036;-89
2021/06/21 08:22:44;;;;;;;73.93;8.30;;;13.50;99.90;;;;;;5091315;28;20060;-91
2021/06/21 08:25:12;;;;;;;30.02;4.95;;;13.60;99.90;;;;;;5090987;28;20052;-71
2021/06/21 08:27:38;;;;;;;26.90;4.53;;;13.50;99.90;;;;;;5107812;28;20447;-74
2021/06/21 08:30:07;;;;;;;20.17;3.58;;;13.50;99.90;;;;;;5108083;28;20056;-73
2021/06/21 08:32:35;;;;;;;13.35;3.47;;;13.50;99.90;;;;;;5108373;28;20449;-75
2021/06/21 08:35:03;;;;;;;11.73;3.38;;;13.60;99.90;;;;;;5108247;28;20043;-75
2021/06/21 08:37:30;;;;;;;18.27;4.45;;;13.50;99.90;;;;;;5090666;28;20447;-77
2021/06/21 08:39:57;;;;;;;26.55;4.45;;;13.50;99.90;;;;;;5090177;28;20036;-78
2021/06/21 08:42:24;;;;;;;29.98;5.45;;;13.50;99.90;;;;;;5091056;28;20051;-76
2021/06/21 08:44:51;;;;;;;107.82;9.00;;;13.60;99.90;;;;;;5106506;28;20040;-74
2021/06/21 08:47:19;;;;;;;14.57;3.63;;;13.50;99.90;;;;;;5090260;28;20040;-75
2021/06/21 08:49:48;;;;;;;30.65;4.50;;;13.60;99.90;;;;;;5089876;28;20041;-74
2021/06/21 08:52:19;;;;;;;41.90;5.97;;;13.60;99.90;;;;;;5090087;28;20120;-74
2021/06/21 08:54:46;;;;;;;24.25;4.00;;;13.60;99.90;;;;;;5107673;28;20488;-72
2021/06/21 08:57:14;;;;;;;17.63;3.70;;;13.60;99.90;;;;;;5108104;28;20119;-75
2021/06/21 08:59:41;;;;;;;36.95;6.00;;;13.60;99.90;;;;;;5089784;28;20033;-76
2021/06/21 09:02:08;;;;;;;81.13;5.80;;;13.60;99.90;;;;;;5106796;28;20550;-75
2021/06/21 09:04:39;;;;;;;13.13;3.17;;;13.70;99.90;;;;;;5090072;28;20032;-75
2021/06/21 09:07:16;;;;;;;37.50;4.63;;;13.70;99.90;;;;;;5106667;28;20039;-75
2021/06/21 09:09:43;;;;;;;17.42;3.30;;;13.70;99.90;;;;;;5105854;28;20036;-73
2021/06/21 09:12:30;;;;;;;124.50;7.97;;;13.70;99.90;;;;;;5107710;28;20041;-86
2021/06/21 09:14:59;;;;;;;9.07;2.97;;;13.80;99.90;;;;;;5101099;28;20378;-84
2021/06/21 09:17:28;;;;;;;12.93;3.30;;;13.70;99.90;;;;;;5076092;28;20090;-83
2021/06/21 09:19:59;;;;;;;10.75;2.92;;;13.70;99.90;;;;;;5094915;28;20110;-83
2021/06/21 09:22:34;;;;;;;8.90;2.70;;;13.70;99.90;;;;;;5103091;28;20033;-84
2021/06/21 09:25:21;;;;;;;12.50;3.05;;;13.70;99.90;;;;;;5086826;28;20048;-84
2021/06/21 09:28:01;;;;;;;22.17;4.03;;;13.70;99.90;;;;;;5086791;28;20052;-86
2021/06/21 09:30:30;;;;;;;22.70;3.58;;;13.70;99.90;;;;;;5088206;28;20140;-81
2021/06/21 09:32:59;;;;;;;12.98;3.00;;;13.70;99.90;;;;;;5053774;28;20413;-77
2021/06/21 09:35:29;;;;;;;7.28;2.47;;;13.70;99.90;;;;;;5086944;28;20385;-83
2021/06/21 09:38:01;;;;;;;9.63;2.65;;;13.60;99.90;;;;;;5086710;28;20068;-81
2021/06/21 09:40:52;;;;;;;9.82;2.70;;;13.60;99.90;;;;;;5054121;28;20063;-86
2021/06/21 09:43:20;;;;;;;7.32;2.13;;;13.60;99.90;;;;;;5087258;28;20060;-84
2021/06/21 09:46:11;;;;;;;9.90;2.40;;;13.60;99.90;;;;;;5087234;28;20547;-79
2021/06/21 09:49:05;;;;;;;6.45;2.25;;;13.60;99.90;;;;;;5087572;28;20052;-80
2021/06/21 09:51:35;;;;;;;6.40;2.20;;;13.50;99.90;;;;;;5069178;28;20068;-85
2021/06/21 09:54:10;;;;;;;9.63;2.20;;;13.50;99.90;;;;;;5086161;28;20129;-83
2021/06/21 09:56:43;;;;;;;6.43;2.28;;;13.50;99.90;;;;;;5086675;28;20041;-84
2021/06/21 09:59:26;;;;;;;10.40;2.10;;;13.50;99.90;;;;;;5086027;28;20040;-84
2021/06/21 10:02:14;;;;;;;10.30;2.22;;;13.50;99.90;;;;;;5086199;28;20037;-82
2021/06/21 10:04:44;;;;;;;6.05;2.08;;;13.50;99.90;;;;;;5086625;28;20393;-82
2021/06/21 10:07:36;;;;;;;8.10;2.10;;;13.40;99.90;;;;;;5067971;28;20136;-84
2021/06/21 10:10:09;;;;;;;7.15;2.38;;;13.40;99.90;;;;;;5096617;28;20530;-83
2021/06/21 10:13:08;;;;;;;7.10;1.83;;;13.50;99.90;;;;;;5106505;28;20036;-84
2021/06/21 10:15:37;;;;;;;7.00;2.35;;;13.40;99.90;;;;;;5109007;28;20044;-85
2021/06/21 10:18:05;;;;;;;8.32;2.13;;;13.40;99.90;;;;;;5073417;28;20041;-84
2021/06/21 10:20:33;;;;;;;11.80;2.83;;;13.40;99.90;;;;;;5089835;28;20369;-84
2021/06/21 10:23:03;;;;;;;12.20;3.00;;;13.40;99.90;;;;;;5089159;28;20037;-83
2021/06/21 10:25:30;;;;;;;6.95;2.17;;;13.40;99.90;;;;;;5088913;28;20037;-83
2021/06/21 10:28:00;;;;;;;8.00;2.40;;;13.40;99.90;;;;;;5085803;28;20033;-82
2021/06/21 10:30:28;;;;;;;7.93;2.38;;;13.40;99.90;;;;;;5083075;28;20394;-84
2021/06/21 10:32:55;;;;;;;6.47;2.25;;;13.40;99.90;;;;;;5100223;28;20039;-82
2021/06/21 10:35:24;;;;;;;9.30;2.03;;;13.40;99.90;;;;;;5100927;28;20102;-88
2021/06/21 10:38:05;;;;;;;8.50;2.10;;;13.40;99.90;;;;;;5084814;28;20036;-90
2021/06/21 10:40:55;;;;;;;6.03;2.20;;;13.70;99.90;;;;;;5108817;28;20037;-95
2021/06/21 10:43:40;;;;;;;7.30;2.42;;;13.40;99.90;;;;;;5093339;28;20131;-90
2021/06/21 10:46:19;;;;;;;8.80;2.53;;;13.40;99.90;;;;;;5093790;28;20086;-92
2021/06/21 10:49:02;;;;;;;9.43;2.75;;;13.40;99.90;;;;;;5076068;28;20647;-89
2021/06/21 10:51:40;;;;;;;8.77;2.17;;;13.40;99.90;;;;;;5095091;28;20056;-90
2021/06/21 10:54:24;;;;;;;11.38;2.47;;;13.40;99.90;;;;;;5087947;28;20477;-88
2021/06/21 10:56:59;;;;;;;10.13;2.40;;;13.30;99.90;;;;;;5090712;28;20539;-87
2021/06/21 10:59:27;;;;;;;10.32;2.30;;;13.40;99.90;;;;;;5090898;28;20040;-89
2021/06/21 11:01:56;;;;;;;7.90;2.40;;;13.40;99.90;;;;;;5074670;28;20423;-90
2021/06/21 11:04:50;;;;;;;7.70;2.40;;;13.40;99.90;;;;;;5074282;28;20572;-88
2021/06/21 11:07:19;;;;;;;6.38;2.10;;;13.40;99.90;;;;;;5070538;28;20041;-88
2021/06/21 11:09:49;;;;;;;7.30;2.03;;;13.40;99.90;;;;;;5088273;28;20135;-87
2021/06/21 11:12:22;;;;;;;8.80;2.50;;;13.30;99.90;;;;;;5093789;28;20059;-89
2021/06/21 11:15:06;;;;;;;6.35;1.90;;;13.30;99.90;;;;;;5110398;28;20036;-87
2021/06/21 11:17:56;;;;;;;9.00;3.08;;;13.30;99.90;;;;;;5095644;28;20056;-89
2021/06/21 11:20:35;;;;;;;9.88;4.20;;;13.40;99.90;;;;;;5054661;28;20128;-89
2021/06/21 11:23:04;;;;;;;9.55;4.80;;;13.40;99.90;;;;;;5053637;28;20086;-88
2021/06/21 11:25:50;;;;;;;9.30;3.30;;;13.40;99.90;;;;;;5054011;28;20042;-89
2021/06/21 11:28:43;;;;;;;9.65;3.17;;;13.40;99.90;;;;;;5086384;28;20407;-89
2021/06/21 11:31:25;;;;;;;8.55;3.13;;;13.40;99.90;;;;;;5062252;28;20133;-90
2021/06/21 11:34:01;;;;;;;8.85;3.25;;;13.40;99.90;;;;;;5090317;28;20033;-90
2021/06/21 11:36:39;;;;;;;7.93;3.60;;;13.40;99.90;;;;;;5073839;28;20114;-90
2021/06/21 11:39:27;;;;;;;9.88;4.07;;;13.40;99.90;;;;;;5089052;28;20041;-88
2021/06/21 11:42:04;;;;;;;9.27;3.30;;;13.40;99.90;;;;;;5094033;28;20109;-88
2021/06/21 11:44:40;;;;;;;12.38;4.00;;;13.40;99.90;;;;;;5080219;28;20024;-93
2021/06/21 11:47:23;;;;;;;11.25;5.30;;;13.40;99.90;;;;;;5108989;28;20101;-88
2021/06/21 11:49:53;;;;;;;5.97;2.95;;;13.40;99.90;;;;;;5119986;28;20040;-89
2021/06/21 11:52:25;;;;;;;6.72;3.28;;;13.40;99.90;;;;;;5077892;28;20053;-89
2021/06/21 11:54:54;;;;;;;9.30;3.38;;;13.40;99.90;;;;;;5105678;28;20029;-90
2021/06/21 11:57:24;;;;;;;11.57;4.40;;;13.50;99.90;;;;;;5108777;28;20051;-91
2021/06/21 11:59:52;;;;;;;9.85;3.95;;;13.50;99.90;;;;;;5082225;28;20051;-93
2021/06/21 12:02:24;;;;;;;10.45;3.72;;;13.60;99.90;;;;;;5077366;28;20090;-90
2021/06/21 12:04:54;;;;;;;9.88;5.03;;;13.60;99.90;;;;;;5089430;28;20378;-90
2021/06/21 12:07:42;;;;;;;14.13;5.63;;;13.50;99.90;;;;;;5084757;28;20094;-91
2021/06/21 12:10:18;;;;;;;13.07;5.68;;;13.50;99.90;;;;;;5052765;28;20065;-90
2021/06/21 12:12:51;;;;;;;10.95;5.38;;;13.50;99.90;;;;;;5072312;28;20082;-92
2021/06/21 12:15:38;;;;;;;8.50;3.35;;;13.50;99.90;;;;;;5091071;28;20044;-88
2021/06/21 12:18:05;;;;;;;7.38;3.10;;;13.50;99.90;;;;;;5098250;28;20039;-89
2021/06/21 12:20:33;;;;;;;8.88;2.83;;;13.50;99.90;;;;;;5072307;28;20512;-94
2021/06/21 12:23:12;;;;;;;5.78;2.53;;;13.50;99.90;;;;;;5072523;28;20601;-87
2021/06/21 12:25:45;;;;;;;6.00;2.80;;;13.40;99.90;;;;;;5093459;28;20028;-88
2021/06/21 12:28:29;;;;;;;6.32;3.03;;;13.40;99.90;;;;;;5079742;28;20053;-87
2021/06/21 12:31:18;;;;;;;9.90;6.07;;;13.40;99.90;;;;;;5089385;28;20071;-88
2021/06/21 12:33:45;;;;;;;9.82;5.15;;;13.40;99.90;;;;;;5087271;28;20037;-89
2021/06/21 12:36:17;;;;;;;10.15;4.50;;;13.40;99.90;;;;;;5088341;28;20059;-88
2021/06/21 12:38:50;;;;;;;7.15;3.08;;;13.50;99.90;;;;;;5099348;28;20044;-90
2021/06/21 12:41:25;;;;;;;9.43;3.60;;;13.50;99.90;;;;;;5101754;28;20519;-88
2021/06/21 12:44:12;;;;;;;9.20;4.25;;;13.50;99.90;;;;;;5081931;28;20036;-90
2021/06/21 12:46:42;;;;;;;11.05;5.43;;;13.50;99.90;;;;;;5094474;28;20033;-91
2021/06/21 12:49:11;;;;;;;11.32;3.45;;;13.40;99.90;;;;;;5075671;28;20513;-90
2021/06/21 12:51:51;;;;;;;9.93;3.45;;;13.40;99.90;;;;;;5078776;28;20065;-92
2021/06/21 12:58:00;;;;;;;9.00;2.72;;;13.60;99.90;;;;;;5077287;28;20068;-93
2021/06/21 13:00:59;;;;;;;9.63;3.00;;;13.40;99.90;;;;;;5095195;28;20047;-91
2021/06/21 13:03:50;;;;;;;10.68;2.92;;;13.50;99.90;;;;;;5076552;28;20132;-91
2021/06/21 13:06:35;;;;;;;7.97;2.88;;;13.50;99.90;;;;;;5077062;28;20097;-90
2021/06/21 13:09:14;;;;;;;11.85;3.13;;;13.50;99.90;;;;;;5083278;28;20036;-88
2021/06/21 13:15:21;;;;;;;10.90;3.50;;;13.50;99.90;;;;;;5091556;28;20067;-93